Monte Rio, CA (95462)

7:32 AM PDT on September 19, 2014 (GMT -0700)
Huckleberry Heights, Lower Austin Creek | Change Station
CLOSE
Current Station
Personal Weather Station
Location: Cazadero, CA
Elevation: 299 ft
Nearby Weather Stations

Elev 299 ft 38.49 °N, 123.06 °W | Updated 14 minutes ago

Fog
Fog
57.1 °F
Feels Like 57.1 °F
N
0.0
Wind Variable Wind from SW
Gusts 0.0 mph

Today
High -- | Low -- °F
--% Chance of Precip.
Yesterday
High -- | Low -- °F
Precip. -- in
6:57 AM 7:13 PM
Waning Crescent, 19% visible
Pressure 29.88 in
Visibility 0.2 miles
Clouds
Dew Point 57 °F
Humidity 99%
Rainfall 0.00 in
Snow Depth 0 in , 1 in , 1 in
UV Not available.
Pollen 4.70 out of 12
Air Quality Not available.
Flu Activity Not available.
METAR KSTS 191353Z 00000KT 1/4SM FG VV002 14/14 A2990 RMK AO2 SLP118 T01440144

More Conditions Fewer Conditions

Pressure 29.88 in
Visibility 0.2 miles
Clouds
Dew Point 57 °F
Humidity 99%
Rainfall 0.00 in
Snow Depth 0 in , 1 in , 1 in
UV Not available.
Pollen 4.70 out of 12
Air Quality Not available.
Flu Activity Not available.
METAR KSTS 191353Z 00000KT 1/4SM FG VV002 14/14 A2990 RMK AO2 SLP118 T01440144

More Conditions Fewer Conditions

10-Day Weather Forecast

Almanac

Astronomy

Sep. 19, 2014 Rise Set
Actual Time 6:57 AM PDT 7:13 PM PDT
Civil Twilight 6:30 AM PDT 7:40 PM PDT
Nautical Twilight 5:59 AM PDT 8:11 PM PDT
Astronomical Twilight 5:28 AM PDT 8:42 PM PDT
Moon 2:49 AM PDT 4:43 PM PDT
Length of Visible Light 13h 09m
Length of Day
12h 16m
Tomorrow will be 2m 29s shorter.
Waning Crescent, 19% of the Moon is Illuminated
Today
Waning Crescent
Sep 24
New
Oct 1
First Quarter
Oct 8
Full
Oct 15
Last Quarter

Today's Extremes

State Highs State Lows

Community

WunderPhotos

Upload Photos

1,754,624 photos uploaded!

Nearby

Air Quality

  Air Quality AQ Index Pollutant
Friday Good
PM2.5
Saturday Moderate
PM2.5
Sunday Moderate
PM2.5
Monday Moderate
PM2.5
Tuesday Moderate
PM2.5

Snow Depth

Station Depth Elevation
Sonora Pass 0 in 8800 ft
Summit Meadow 1 in 9122 ft
Spratt Creek 1 in 6200 ft
Tahoe City Cross 0 in 6750 ft
Rubicon #2 1 in 7500 ft

Earthquake Activity

City Distance Mag. Time & Date
Livermore, California 88 miles 2.6 3:37 AM PDT
2014-09-19
The Geysers, California 25 miles 2.5 11:29 PM PDT
2014-09-17
Cobb, California 27 miles 2.7 1:23 PM PDT
2014-09-16
Minimum magnitude displayed is 2.5.

Coastal Water Temperatures

Place Temperature
Point Reyes, CA 64.9 °F
Arena Cove, CA 62.1 °F
San Francisco, CA 66.0 °F
Richmond, CA 68.0 °F

Nearby Weather Stations